sensor_id;sensor_type;location;lat;lon;timestamp;temperature;humidity
74822;DHT22;63353;48.702;8.884;2022-10-16T00:00:33;13.80;99.90
74822;DHT22;63353;48.702;8.884;2022-10-16T00:03:00;13.80;99.90
74822;DHT22;63353;48.702;8.884;2022-10-16T00:05:26;13.80;99.90
74822;DHT22;63353;48.702;8.884;2022-10-16T00:07:52;13.70;99.90
74822;DHT22;63353;48.702;8.884;2022-10-16T00:10:17;13.60;99.90
74822;DHT22;63353;48.702;8.884;2022-10-16T00:12:43;13.50;99.90
74822;DHT22;63353;48.702;8.884;2022-10-16T00:15:09;13.50;99.90
74822;DHT22;63353;48.702;8.884;2022-10-16T00:17:34;13.40;99.90
74822;DHT22;63353;48.702;8.884;2022-10-16T00:20:00;13.40;99.90
74822;DHT22;63353;48.702;8.884;2022-10-16T00:22:26;13.30;99.90
74822;DHT22;63353;48.702;8.884;2022-10-16T00:24:52;13.20;99.90
74822;DHT22;63353;48.702;8.884;2022-10-16T00:27:17;13.20;99.90
74822;DHT22;63353;48.702;8.884;2022-10-16T00:29:43;13.30;99.90
74822;DHT22;63353;48.702;8.884;2022-10-16T00:32:09;13.40;99.90
74822;DHT22;63353;48.702;8.884;2022-10-16T00:34:34;13.40;99.90
74822;DHT22;63353;48.702;8.884;2022-10-16T00:37:00;13.40;99.90
74822;DHT22;63353;48.702;8.884;2022-10-16T00:39:26;13.50;99.90
74822;DHT22;63353;48.702;8.884;2022-10-16T00:41:52;13.60;99.90
74822;DHT22;63353;48.702;8.884;2022-10-16T00:47:15;13.70;99.90
74822;DHT22;63353;48.702;8.884;2022-10-16T00:49:42;13.70;99.90
74822;DHT22;63353;48.702;8.884;2022-10-16T00:52:10;13.80;99.90
74822;DHT22;63353;48.702;8.884;2022-10-16T00:54:35;13.70;99.90
74822;DHT22;63353;48.702;8.884;2022-10-16T00:57:04;13.70;99.90
74822;DHT22;63353;48.702;8.884;2022-10-16T00:59:34;13.70;99.90
74822;DHT22;63353;48.702;8.884;2022-10-16T01:02:01;13.70;99.90
74822;DHT22;63353;48.702;8.884;2022-10-16T01:04:32;13.80;99.90
74822;DHT22;63353;48.702;8.884;2022-10-16T01:12:15;13.90;99.90
74822;DHT22;63353;48.702;8.884;2022-10-16T01:19:59;13.80;99.90
74822;DHT22;63353;48.702;8.884;2022-10-16T01:22:38;13.80;99.90
74822;DHT22;63353;48.702;8.884;2022-10-16T01:25:11;13.70;99.90
74822;DHT22;63353;48.702;8.884;2022-10-16T01:27:40;13.70;99.90
74822;DHT22;63353;48.702;8.884;2022-10-16T01:30:10;13.90;99.90
74822;DHT22;63353;48.702;8.884;2022-10-16T01:33:08;13.70;99.90
74822;DHT22;63353;48.702;8.884;2022-10-16T01:35:38;13.70;99.90
74822;DHT22;63353;48.702;8.884;2022-10-16T01:40:39;13.70;99.90
74822;DHT22;63353;48.702;8.884;2022-10-16T01:43:13;13.80;99.90
74822;DHT22;63353;48.702;8.884;2022-10-16T01:45:42;13.80;99.90
74822;DHT22;63353;48.702;8.884;2022-10-16T01:48:12;13.80;99.90
74822;DHT22;63353;48.702;8.884;2022-10-16T01:50:40;13.80;99.90
74822;DHT22;63353;48.702;8.884;2022-10-16T01:53:10;13.70;99.90
74822;DHT22;63353;48.702;8.884;2022-10-16T01:55:40;13.80;99.90
74822;DHT22;63353;48.702;8.884;2022-10-16T01:58:10;13.80;99.90
74822;DHT22;63353;48.702;8.884;2022-10-16T02:00:39;13.80;99.90
74822;DHT22;63353;48.702;8.884;2022-10-16T02:03:07;13.80;99.90
74822;DHT22;63353;48.702;8.884;2022-10-16T02:05:53;13.80;99.90
74822;DHT22;63353;48.702;8.884;2022-10-16T02:08:21;13.80;99.90
74822;DHT22;63353;48.702;8.884;2022-10-16T02:10:48;13.90;99.90
74822;DHT22;63353;48.702;8.884;2022-10-16T02:13:24;13.90;99.90
74822;DHT22;63353;48.702;8.884;2022-10-16T02:15:51;13.90;99.90
74822;DHT22;63353;48.702;8.884;2022-10-16T02:18:17;13.90;99.90
74822;DHT22;63353;48.702;8.884;2022-10-16T02:20:50;13.90;99.90
74822;DHT22;63353;48.702;8.884;2022-10-16T02:23:45;13.90;99.90
74822;DHT22;63353;48.702;8.884;2022-10-16T02:26:10;13.90;99.90
74822;DHT22;63353;48.702;8.884;2022-10-16T02:28:47;13.80;99.90
74822;DHT22;63353;48.702;8.884;2022-10-16T02:31:18;13.70;99.90
74822;DHT22;63353;48.702;8.884;2022-10-16T02:33:47;13.70;99.90
74822;DHT22;63353;48.702;8.884;2022-10-16T02:36:13;13.60;99.90
74822;DHT22;63353;48.702;8.884;2022-10-16T02:38:39;13.60;99.90
74822;DHT22;63353;48.702;8.884;2022-10-16T02:41:06;13.60;99.90
74822;DHT22;63353;48.702;8.884;2022-10-16T02:43:31;13.60;99.90
74822;DHT22;63353;48.702;8.884;2022-10-16T02:45:59;13.70;99.90
74822;DHT22;63353;48.702;8.884;2022-10-16T02:48:25;13.60;99.90
74822;DHT22;63353;48.702;8.884;2022-10-16T02:50:50;13.70;99.90
74822;DHT22;63353;48.702;8.884;2022-10-16T02:53:16;13.70;99.90
74822;DHT22;63353;48.702;8.884;2022-10-16T02:55:42;13.70;99.90
74822;DHT22;63353;48.702;8.884;2022-10-16T02:58:07;13.70;99.90
74822;DHT22;63353;48.702;8.884;2022-10-16T03:00:33;13.60;99.90
74822;DHT22;63353;48.702;8.884;2022-10-16T03:02:59;13.60;99.90
74822;DHT22;63353;48.702;8.884;2022-10-16T03:05:24;13.60;99.90
74822;DHT22;63353;48.702;8.884;2022-10-16T03:07:50;13.60;99.90
74822;DHT22;63353;48.702;8.884;2022-10-16T03:10:16;13.50;99.90
74822;DHT22;63353;48.702;8.884;2022-10-16T03:12:41;13.60;99.90
74822;DHT22;63353;48.702;8.884;2022-10-16T03:15:07;13.50;99.90
74822;DHT22;63353;48.702;8.884;2022-10-16T03:17:33;13.60;99.90
74822;DHT22;63353;48.702;8.884;2022-10-16T03:19:59;13.60;99.90
74822;DHT22;63353;48.702;8.884;2022-10-16T03:24:52;13.60;99.90
74822;DHT22;63353;48.702;8.884;2022-10-16T03:27:18;13.60;99.90
74822;DHT22;63353;48.702;8.884;2022-10-16T03:29:43;13.60;99.90
74822;DHT22;63353;48.702;8.884;2022-10-16T03:32:09;13.60;99.90
74822;DHT22;63353;48.702;8.884;2022-10-16T03:34:35;13.60;99.90
74822;DHT22;63353;48.702;8.884;2022-10-16T03:37:00;13.60;99.90
74822;DHT22;63353;48.702;8.884;2022-10-16T03:39:26;13.60;99.90
74822;DHT22;63353;48.702;8.884;2022-10-16T03:41:52;13.60;99.90
74822;DHT22;63353;48.702;8.884;2022-10-16T03:44:18;13.50;99.90
74822;DHT22;63353;48.702;8.884;2022-10-16T03:46:43;13.50;99.90
74822;DHT22;63353;48.702;8.884;2022-10-16T03:49:09;13.40;99.90
74822;DHT22;63353;48.702;8.884;2022-10-16T03:51:35;13.40;99.90
74822;DHT22;63353;48.702;8.884;2022-10-16T03:54:00;13.40;99.90
74822;DHT22;63353;48.702;8.884;2022-10-16T03:56:26;13.40;99.90
74822;DHT22;63353;48.702;8.884;2022-10-16T03:58:52;13.40;99.90
74822;DHT22;63353;48.702;8.884;2022-10-16T04:01:17;13.30;99.90
74822;DHT22;63353;48.702;8.884;2022-10-16T04:03:43;13.30;99.90
74822;DHT22;63353;48.702;8.884;2022-10-16T04:06:08;13.40;99.90
74822;DHT22;63353;48.702;8.884;2022-10-16T04:08:34;13.40;99.90
74822;DHT22;63353;48.702;8.884;2022-10-16T04:11:02;13.40;99.90
74822;DHT22;63353;48.702;8.884;2022-10-16T04:13:28;13.40;99.90
74822;DHT22;63353;48.702;8.884;2022-10-16T04:15:53;13.40;99.90
74822;DHT22;63353;48.702;8.884;2022-10-16T04:18:19;13.40;99.90
74822;DHT22;63353;48.702;8.884;2022-10-16T04:20:44;13.40;99.90
74822;DHT22;63353;48.702;8.884;2022-10-16T04:23:10;13.50;99.90
74822;DHT22;63353;48.702;8.884;2022-10-16T04:25:36;13.50;99.90
74822;DHT22;63353;48.702;8.884;2022-10-16T04:28:02;13.60;99.90
74822;DHT22;63353;48.702;8.884;2022-10-16T04:30:27;13.60;99.90
74822;DHT22;63353;48.702;8.884;2022-10-16T04:32:53;13.70;99.90
74822;DHT22;63353;48.702;8.884;2022-10-16T04:35:20;13.60;99.90
74822;DHT22;63353;48.702;8.884;2022-10-16T04:37:46;13.60;99.90
74822;DHT22;63353;48.702;8.884;2022-10-16T04:40:12;13.50;99.90
74822;DHT22;63353;48.702;8.884;2022-10-16T04:42:38;13.40;99.90
74822;DHT22;63353;48.702;8.884;2022-10-16T04:45:05;13.50;99.90
74822;DHT22;63353;48.702;8.884;2022-10-16T04:47:31;13.50;99.90
74822;DHT22;63353;48.702;8.884;2022-10-16T04:49:57;13.50;99.90
74822;DHT22;63353;48.702;8.884;2022-10-16T04:52:22;13.50;99.90
74822;DHT22;63353;48.702;8.884;2022-10-16T04:54:50;13.50;99.90
74822;DHT22;63353;48.702;8.884;2022-10-16T04:57:16;13.50;99.90
74822;DHT22;63353;48.702;8.884;2022-10-16T04:59:42;13.40;99.90
74822;DHT22;63353;48.702;8.884;2022-10-16T05:02:08;13.30;99.90
74822;DHT22;63353;48.702;8.884;2022-10-16T05:04:34;13.30;99.90
74822;DHT22;63353;48.702;8.884;2022-10-16T05:06:59;13.20;99.90
74822;DHT22;63353;48.702;8.884;2022-10-16T05:09:25;13.20;99.90
74822;DHT22;63353;48.702;8.884;2022-10-16T05:11:51;13.10;99.90
74822;DHT22;63353;48.702;8.884;2022-10-16T05:14:17;13.00;99.90
74822;DHT22;63353;48.702;8.884;2022-10-16T05:16:42;12.90;99.90
74822;DHT22;63353;48.702;8.884;2022-10-16T05:19:08;12.80;99.90
74822;DHT22;63353;48.702;8.884;2022-10-16T05:21:33;12.70;99.90
74822;DHT22;63353;48.702;8.884;2022-10-16T05:23:59;12.70;99.90
74822;DHT22;63353;48.702;8.884;2022-10-16T05:26:25;12.60;99.90
74822;DHT22;63353;48.702;8.884;2022-10-16T05:28:50;12.50;99.90
74822;DHT22;63353;48.702;8.884;2022-10-16T05:31:16;12.50;99.90
74822;DHT22;63353;48.702;8.884;2022-10-16T05:33:42;12.50;99.90
74822;DHT22;63353;48.702;8.884;2022-10-16T05:36:09;12.40;99.90
74822;DHT22;63353;48.702;8.884;2022-10-16T05:38:36;12.40;99.90
74822;DHT22;63353;48.702;8.884;2022-10-16T05:41:03;12.40;99.90
74822;DHT22;63353;48.702;8.884;2022-10-16T05:43:30;12.40;99.90
74822;DHT22;63353;48.702;8.884;2022-10-16T05:45:59;12.40;99.90
74822;DHT22;63353;48.702;8.884;2022-10-16T05:48:26;12.40;99.90
74822;DHT22;63353;48.702;8.884;2022-10-16T05:51:06;12.40;99.90
74822;DHT22;63353;48.702;8.884;2022-10-16T05:53:34;12.40;99.90
74822;DHT22;63353;48.702;8.884;2022-10-16T05:56:00;12.50;99.90
74822;DHT22;63353;48.702;8.884;2022-10-16T05:58:29;12.50;99.90
74822;DHT22;63353;48.702;8.884;2022-10-16T06:00:57;12.50;99.90
74822;DHT22;63353;48.702;8.884;2022-10-16T06:03:23;12.60;99.90
74822;DHT22;63353;48.702;8.884;2022-10-16T06:05:49;12.70;99.90
74822;DHT22;63353;48.702;8.884;2022-10-16T06:08:14;12.80;99.90
74822;DHT22;63353;48.702;8.884;2022-10-16T06:10:40;12.80;99.90
74822;DHT22;63353;48.702;8.884;2022-10-16T06:13:06;12.80;99.90
74822;DHT22;63353;48.702;8.884;2022-10-16T06:15:31;12.80;99.90
74822;DHT22;63353;48.702;8.884;2022-10-16T06:17:57;12.90;99.90
74822;DHT22;63353;48.702;8.884;2022-10-16T06:20:22;12.90;99.90
74822;DHT22;63353;48.702;8.884;2022-10-16T06:22:48;12.90;99.90
74822;DHT22;63353;48.702;8.884;2022-10-16T06:25:14;12.90;99.90
74822;DHT22;63353;48.702;8.884;2022-10-16T06:27:40;12.90;99.90
74822;DHT22;63353;48.702;8.884;2022-10-16T06:30:06;13.00;99.90
74822;DHT22;63353;48.702;8.884;2022-10-16T06:32:32;13.10;99.90
74822;DHT22;63353;48.702;8.884;2022-10-16T06:34:58;13.20;99.90
74822;DHT22;63353;48.702;8.884;2022-10-16T06:37:23;13.40;99.90
74822;DHT22;63353;48.702;8.884;2022-10-16T06:39:50;13.40;99.90
74822;DHT22;63353;48.702;8.884;2022-10-16T06:42:18;13.50;99.90
74822;DHT22;63353;48.702;8.884;2022-10-16T06:44:43;13.70;99.90
74822;DHT22;63353;48.702;8.884;2022-10-16T06:47:09;13.60;99.90
74822;DHT22;63353;48.702;8.884;2022-10-16T06:49:35;13.70;99.90
74822;DHT22;63353;48.702;8.884;2022-10-16T06:52:01;13.80;99.90
74822;DHT22;63353;48.702;8.884;2022-10-16T06:54:27;13.80;99.90
74822;DHT22;63353;48.702;8.884;2022-10-16T06:56:53;13.90;99.90
74822;DHT22;63353;48.702;8.884;2022-10-16T06:59:20;13.90;99.90
74822;DHT22;63353;48.702;8.884;2022-10-16T07:01:46;14.00;99.90
74822;DHT22;63353;48.702;8.884;2022-10-16T07:04:12;14.00;99.90
74822;DHT22;63353;48.702;8.884;2022-10-16T07:06:38;14.00;99.90
74822;DHT22;63353;48.702;8.884;2022-10-16T07:09:06;14.10;99.90
74822;DHT22;63353;48.702;8.884;2022-10-16T07:11:32;14.10;99.90
74822;DHT22;63353;48.702;8.884;2022-10-16T07:13:58;14.20;99.90
74822;DHT22;63353;48.702;8.884;2022-10-16T07:16:26;14.10;99.90
74822;DHT22;63353;48.702;8.884;2022-10-16T07:19:00;14.20;99.90
74822;DHT22;63353;48.702;8.884;2022-10-16T07:21:29;14.20;99.90
74822;DHT22;63353;48.702;8.884;2022-10-16T07:23:57;14.20;99.90
74822;DHT22;63353;48.702;8.884;2022-10-16T07:26:24;14.20;99.90
74822;DHT22;63353;48.702;8.884;2022-10-16T07:28:50;14.30;99.90
74822;DHT22;63353;48.702;8.884;2022-10-16T07:31:17;14.40;99.90
74822;DHT22;63353;48.702;8.884;2022-10-16T07:33:44;14.40;99.90
74822;DHT22;63353;48.702;8.884;2022-10-16T07:36:11;14.50;99.90
74822;DHT22;63353;48.702;8.884;2022-10-16T07:38:37;14.70;99.90
74822;DHT22;63353;48.702;8.884;2022-10-16T07:41:06;14.80;99.90
74822;DHT22;63353;48.702;8.884;2022-10-16T07:43:32;14.80;99.90
74822;DHT22;63353;48.702;8.884;2022-10-16T07:45:59;14.90;99.90
74822;DHT22;63353;48.702;8.884;2022-10-16T07:48:28;14.90;99.90
74822;DHT22;63353;48.702;8.884;2022-10-16T07:51:01;15.00;99.90
74822;DHT22;63353;48.702;8.884;2022-10-16T07:53:28;15.10;99.90
74822;DHT22;63353;48.702;8.884;2022-10-16T07:56:01;15.20;99.90
74822;DHT22;63353;48.702;8.884;2022-10-16T07:58:28;15.30;99.90
74822;DHT22;63353;48.702;8.884;2022-10-16T08:00:55;15.50;99.90
74822;DHT22;63353;48.702;8.884;2022-10-16T08:03:20;15.60;99.90
74822;DHT22;63353;48.702;8.884;2022-10-16T08:05:46;15.70;99.90
74822;DHT22;63353;48.702;8.884;2022-10-16T08:08:17;15.80;99.90
74822;DHT22;63353;48.702;8.884;2022-10-16T08:10:43;16.10;99.90
74822;DHT22;63353;48.702;8.884;2022-10-16T08:13:08;16.20;99.90
74822;DHT22;63353;48.702;8.884;2022-10-16T08:15:34;16.30;99.90
74822;DHT22;63353;48.702;8.884;2022-10-16T08:18:02;16.30;99.90
74822;DHT22;63353;48.702;8.884;2022-10-16T08:20:28;16.40;99.90
74822;DHT22;63353;48.702;8.884;2022-10-16T08:22:54;16.20;99.90
74822;DHT22;63353;48.702;8.884;2022-10-16T08:25:21;16.30;99.90
74822;DHT22;63353;48.702;8.884;2022-10-16T08:27:47;16.30;99.90
74822;DHT22;63353;48.702;8.884;2022-10-16T08:30:13;16.30;99.90
74822;DHT22;63353;48.702;8.884;2022-10-16T08:32:39;16.30;99.90
74822;DHT22;63353;48.702;8.884;2022-10-16T08:35:06;16.50;99.90
74822;DHT22;63353;48.702;8.884;2022-10-16T08:37:32;16.50;99.90
74822;DHT22;63353;48.702;8.884;2022-10-16T08:39:58;16.60;99.90
74822;DHT22;63353;48.702;8.884;2022-10-16T08:42:45;16.50;99.90
74822;DHT22;63353;48.702;8.884;2022-10-16T08:48:17;16.60;99.90
74822;DHT22;63353;48.702;8.884;2022-10-16T08:50:45;16.70;99.90
74822;DHT22;63353;48.702;8.884;2022-10-16T08:53:39;16.80;99.90
74822;DHT22;63353;48.702;8.884;2022-10-16T08:56:07;17.00;99.90
74822;DHT22;63353;48.702;8.884;2022-10-16T08:58:33;17.20;99.90
74822;DHT22;63353;48.702;8.884;2022-10-16T09:01:01;17.30;99.90
74822;DHT22;63353;48.702;8.884;2022-10-16T09:09:24;18.10;99.90
74822;DHT22;63353;48.702;8.884;2022-10-16T09:12:00;18.60;99.90
74822;DHT22;63353;48.702;8.884;2022-10-16T09:14:50;19.00;98.10
74822;DHT22;63353;48.702;8.884;2022-10-16T09:20:00;19.30;96.10
74822;DHT22;63353;48.702;8.884;2022-10-16T09:22:30;19.50;97.20
74822;DHT22;63353;48.702;8.884;2022-10-16T09:25:00;19.60;95.00
74822;DHT22;63353;48.702;8.884;2022-10-16T09:27:30;19.30;95.10
74822;DHT22;63353;48.702;8.884;2022-10-16T09:29:56;19.10;95.80
74822;DHT22;63353;48.702;8.884;2022-10-16T09:32:22;18.90;95.10
74822;DHT22;63353;48.702;8.884;2022-10-16T09:34:51;18.80;96.50
74822;DHT22;63353;48.702;8.884;2022-10-16T09:37:19;18.70;96.70
74822;DHT22;63353;48.702;8.884;2022-10-16T09:39:53;18.70;97.10
74822;DHT22;63353;48.702;8.884;2022-10-16T09:42:32;18.70;96.40
74822;DHT22;63353;48.702;8.884;2022-10-16T09:44:58;18.60;96.90
74822;DHT22;63353;48.702;8.884;2022-10-16T09:47:26;18.90;95.80
74822;DHT22;63353;48.702;8.884;2022-10-16T09:49:58;19.30;97.20
74822;DHT22;63353;48.702;8.884;2022-10-16T09:52:28;19.60;96.70
74822;DHT22;63353;48.702;8.884;2022-10-16T09:55:14;20.20;95.90
74822;DHT22;63353;48.702;8.884;2022-10-16T09:57:53;20.80;95.00
74822;DHT22;63353;48.702;8.884;2022-10-16T10:00:21;21.30;90.50
74822;DHT22;63353;48.702;8.884;2022-10-16T10:02:47;21.50;90.10
74822;DHT22;63353;48.702;8.884;2022-10-16T10:05:25;21.70;84.10
74822;DHT22;63353;48.702;8.884;2022-10-16T10:07:59;21.70;84.80
74822;DHT22;63353;48.702;8.884;2022-10-16T10:10:30;21.80;82.40
74822;DHT22;63353;48.702;8.884;2022-10-16T10:12:57;21.70;86.10
74822;DHT22;63353;48.702;8.884;2022-10-16T10:15:23;21.50;85.40
74822;DHT22;63353;48.702;8.884;2022-10-16T10:17:58;21.30;90.40
74822;DHT22;63353;48.702;8.884;2022-10-16T10:20:29;21.30;90.90
74822;DHT22;63353;48.702;8.884;2022-10-16T10:22:57;21.30;88.60
74822;DHT22;63353;48.702;8.884;2022-10-16T10:30:55;21.80;88.30
74822;DHT22;63353;48.702;8.884;2022-10-16T10:39:23;21.50;90.00
74822;DHT22;63353;48.702;8.884;2022-10-16T10:48:11;21.60;88.90
74822;DHT22;63353;48.702;8.884;2022-10-16T10:51:09;21.80;88.90
74822;DHT22;63353;48.702;8.884;2022-10-16T10:53:56;21.80;88.40
74822;DHT22;63353;48.702;8.884;2022-10-16T10:57:00;22.10;90.40
74822;DHT22;63353;48.702;8.884;2022-10-16T10:59:49;22.40;87.90
74822;DHT22;63353;48.702;8.884;2022-10-16T11:02:41;22.10;79.40
74822;DHT22;63353;48.702;8.884;2022-10-16T11:10:25;21.80;81.30
74822;DHT22;63353;48.702;8.884;2022-10-16T11:13:02;21.90;82.20
74822;DHT22;63353;48.702;8.884;2022-10-16T11:15:33;21.90;83.50
74822;DHT22;63353;48.702;8.884;2022-10-16T11:20:40;21.80;80.90
74822;DHT22;63353;48.702;8.884;2022-10-16T11:25:36;21.80;79.30
74822;DHT22;63353;48.702;8.884;2022-10-16T11:28:20;21.70;79.40
74822;DHT22;63353;48.702;8.884;2022-10-16T11:33:33;22.30;79.40
74822;DHT22;63353;48.702;8.884;2022-10-16T11:36:23;23.00;80.90
74822;DHT22;63353;48.702;8.884;2022-10-16T11:41:44;23.30;79.00
74822;DHT22;63353;48.702;8.884;2022-10-16T11:49:32;24.20;75.60
74822;DHT22;63353;48.702;8.884;2022-10-16T11:55:04;23.40;73.10
74822;DHT22;63353;48.702;8.884;2022-10-16T11:57:48;23.60;77.20
74822;DHT22;63353;48.702;8.884;2022-10-16T12:00:24;23.90;77.00
74822;DHT22;63353;48.702;8.884;2022-10-16T12:08:17;23.70;73.60
74822;DHT22;63353;48.702;8.884;2022-10-16T12:10:45;23.60;72.00
74822;DHT22;63353;48.702;8.884;2022-10-16T12:13:33;23.50;70.90
74822;DHT22;63353;48.702;8.884;2022-10-16T12:18:44;23.50;73.60
74822;DHT22;63353;48.702;8.884;2022-10-16T12:21:12;23.20;72.70
74822;DHT22;63353;48.702;8.884;2022-10-16T12:26:14;23.00;73.70
74822;DHT22;63353;48.702;8.884;2022-10-16T12:28:39;22.70;74.40
74822;DHT22;63353;48.702;8.884;2022-10-16T12:31:07;22.70;73.80
74822;DHT22;63353;48.702;8.884;2022-10-16T12:33:37;22.70;78.60
74822;DHT22;63353;48.702;8.884;2022-10-16T12:36:13;22.50;75.70
74822;DHT22;63353;48.702;8.884;2022-10-16T12:38:49;22.50;74.60
74822;DHT22;63353;48.702;8.884;2022-10-16T12:41:30;22.50;74.10
74822;DHT22;63353;48.702;8.884;2022-10-16T12:43:56;22.60;76.10
74822;DHT22;63353;48.702;8.884;2022-10-16T12:46:40;22.70;76.30
74822;DHT22;63353;48.702;8.884;2022-10-16T12:51:37;22.50;73.30
74822;DHT22;63353;48.702;8.884;2022-10-16T12:59:41;22.50;77.30
74822;DHT22;63353;48.702;8.884;2022-10-16T13:02:37;22.50;75.20
74822;DHT22;63353;48.702;8.884;2022-10-16T13:08:09;22.60;76.00
74822;DHT22;63353;48.702;8.884;2022-10-16T13:21:50;24.40;70.40
74822;DHT22;63353;48.702;8.884;2022-10-16T13:30:08;24.00;72.00
74822;DHT22;63353;48.702;8.884;2022-10-16T13:32:36;24.40;74.50
74822;DHT22;63353;48.702;8.884;2022-10-16T13:35:02;24.40;70.60
74822;DHT22;63353;48.702;8.884;2022-10-16T13:37:29;24.30;69.60
74822;DHT22;63353;48.702;8.884;2022-10-16T13:40:27;24.20;70.50
74822;DHT22;63353;48.702;8.884;2022-10-16T13:42:53;24.00;69.70
74822;DHT22;63353;48.702;8.884;2022-10-16T13:45:20;23.90;73.80
74822;DHT22;63353;48.702;8.884;2022-10-16T13:47:47;23.80;74.90
74822;DHT22;63353;48.702;8.884;2022-10-16T13:50:15;23.70;74.30
74822;DHT22;63353;48.702;8.884;2022-10-16T13:52:42;23.70;72.70
74822;DHT22;63353;48.702;8.884;2022-10-16T13:55:15;23.50;75.30
74822;DHT22;63353;48.702;8.884;2022-10-16T13:57:42;23.50;74.10
74822;DHT22;63353;48.702;8.884;2022-10-16T14:00:25;23.40;78.70
74822;DHT22;63353;48.702;8.884;2022-10-16T14:03:07;23.30;79.00
74822;DHT22;63353;48.702;8.884;2022-10-16T14:05:47;23.40;78.30
74822;DHT22;63353;48.702;8.884;2022-10-16T14:08:13;23.40;79.30
74822;DHT22;63353;48.702;8.884;2022-10-16T14:10:39;23.40;79.10
74822;DHT22;63353;48.702;8.884;2022-10-16T14:13:06;23.40;74.20
74822;DHT22;63353;48.702;8.884;2022-10-16T14:15:35;23.40;78.70
74822;DHT22;63353;48.702;8.884;2022-10-16T14:18:02;23.50;79.80
74822;DHT22;63353;48.702;8.884;2022-10-16T14:20:33;23.90;78.90
74822;DHT22;63353;48.702;8.884;2022-10-16T14:23:49;24.20;73.80
74822;DHT22;63353;48.702;8.884;2022-10-16T14:25:52;24.30;70.90
74822;DHT22;63353;48.702;8.884;2022-10-16T14:28:21;24.20;75.50
74822;DHT22;63353;48.702;8.884;2022-10-16T14:30:59;24.00;68.70
74822;DHT22;63353;48.702;8.884;2022-10-16T14:33:32;23.80;74.00
74822;DHT22;63353;48.702;8.884;2022-10-16T14:36:03;24.10;76.40
74822;DHT22;63353;48.702;8.884;2022-10-16T14:38:29;24.30;75.00
74822;DHT22;63353;48.702;8.884;2022-10-16T14:40:57;24.40;70.20
74822;DHT22;63353;48.702;8.884;2022-10-16T14:43:43;24.50;70.40
74822;DHT22;63353;48.702;8.884;2022-10-16T14:46:14;24.30;70.40
74822;DHT22;63353;48.702;8.884;2022-10-16T14:48:46;24.40;74.30
74822;DHT22;63353;48.702;8.884;2022-10-16T14:51:16;24.30;76.60
74822;DHT22;63353;48.702;8.884;2022-10-16T14:53:41;24.40;71.40
74822;DHT22;63353;48.702;8.884;2022-10-16T14:56:19;24.10;69.70
74822;DHT22;63353;48.702;8.884;2022-10-16T14:58:46;24.00;74.10
74822;DHT22;63353;48.702;8.884;2022-10-16T15:01:12;24.00;77.60
74822;DHT22;63353;48.702;8.884;2022-10-16T15:03:38;23.90;75.30
74822;DHT22;63353;48.702;8.884;2022-10-16T15:06:13;23.80;76.40
74822;DHT22;63353;48.702;8.884;2022-10-16T15:08:40;23.80;79.00
74822;DHT22;63353;48.702;8.884;2022-10-16T15:11:13;23.70;78.20
74822;DHT22;63353;48.702;8.884;2022-10-16T15:13:40;23.60;79.10
74822;DHT22;63353;48.702;8.884;2022-10-16T15:16:11;23.50;80.50
74822;DHT22;63353;48.702;8.884;2022-10-16T15:18:37;23.50;76.20
74822;DHT22;63353;48.702;8.884;2022-10-16T15:21:03;23.50;75.80
74822;DHT22;63353;48.702;8.884;2022-10-16T15:23:29;23.40;77.20
74822;DHT22;63353;48.702;8.884;2022-10-16T15:25:56;23.30;76.10
74822;DHT22;63353;48.702;8.884;2022-10-16T15:28:23;23.20;79.70
74822;DHT22;63353;48.702;8.884;2022-10-16T15:30:50;22.90;78.90
74822;DHT22;63353;48.702;8.884;2022-10-16T15:33:21;22.70;79.10
74822;DHT22;63353;48.702;8.884;2022-10-16T15:35:52;22.50;82.60
74822;DHT22;63353;48.702;8.884;2022-10-16T15:38:19;22.30;82.80
74822;DHT22;63353;48.702;8.884;2022-10-16T15:40:47;22.10;81.50
74822;DHT22;63353;48.702;8.884;2022-10-16T15:43:13;21.90;83.60
74822;DHT22;63353;48.702;8.884;2022-10-16T15:45:39;21.70;83.80
74822;DHT22;63353;48.702;8.884;2022-10-16T15:48:05;21.60;86.70
74822;DHT22;63353;48.702;8.884;2022-10-16T15:50:32;21.30;88.70
74822;DHT22;63353;48.702;8.884;2022-10-16T15:52:58;21.20;89.60
74822;DHT22;63353;48.702;8.884;2022-10-16T15:55:23;21.00;90.30
74822;DHT22;63353;48.702;8.884;2022-10-16T15:57:49;20.70;90.70
74822;DHT22;63353;48.702;8.884;2022-10-16T16:00:17;20.60;91.00
74822;DHT22;63353;48.702;8.884;2022-10-16T16:02:50;20.40;91.60
74822;DHT22;63353;48.702;8.884;2022-10-16T16:05:16;20.20;92.20
74822;DHT22;63353;48.702;8.884;2022-10-16T16:07:42;20.00;93.00
74822;DHT22;63353;48.702;8.884;2022-10-16T16:10:10;19.80;93.30
74822;DHT22;63353;48.702;8.884;2022-10-16T16:12:36;19.60;93.40
74822;DHT22;63353;48.702;8.884;2022-10-16T16:15:03;19.40;93.70
74822;DHT22;63353;48.702;8.884;2022-10-16T16:17:30;19.20;94.70
74822;DHT22;63353;48.702;8.884;2022-10-16T16:19:56;19.00;94.50
74822;DHT22;63353;48.702;8.884;2022-10-16T16:22:22;18.90;94.70
74822;DHT22;63353;48.702;8.884;2022-10-16T16:24:47;18.70;95.50
74822;DHT22;63353;48.702;8.884;2022-10-16T16:27:13;18.50;96.00
74822;DHT22;63353;48.702;8.884;2022-10-16T16:29:39;18.40;96.40
74822;DHT22;63353;48.702;8.884;2022-10-16T16:32:05;18.20;97.00
74822;DHT22;63353;48.702;8.884;2022-10-16T16:34:30;18.00;97.00
74822;DHT22;63353;48.702;8.884;2022-10-16T16:36:56;17.90;96.70
74822;DHT22;63353;48.702;8.884;2022-10-16T16:39:22;17.80;97.00
74822;DHT22;63353;48.702;8.884;2022-10-16T16:41:48;17.70;97.30
74822;DHT22;63353;48.702;8.884;2022-10-16T16:44:14;17.60;97.40
74822;DHT22;63353;48.702;8.884;2022-10-16T16:46:41;17.50;97.50
74822;DHT22;63353;48.702;8.884;2022-10-16T16:49:10;17.40;97.90
74822;DHT22;63353;48.702;8.884;2022-10-16T16:51:37;17.30;97.70
74822;DHT22;63353;48.702;8.884;2022-10-16T16:54:02;17.30;97.30
74822;DHT22;63353;48.702;8.884;2022-10-16T16:56:28;17.20;97.70
74822;DHT22;63353;48.702;8.884;2022-10-16T16:58:56;17.10;98.00
74822;DHT22;63353;48.702;8.884;2022-10-16T17:01:23;17.00;97.90
74822;DHT22;63353;48.702;8.884;2022-10-16T17:03:51;16.90;98.50
74822;DHT22;63353;48.702;8.884;2022-10-16T17:06:18;16.80;98.70
74822;DHT22;63353;48.702;8.884;2022-10-16T17:08:44;16.70;98.80
74822;DHT22;63353;48.702;8.884;2022-10-16T17:11:18;16.60;99.10
74822;DHT22;63353;48.702;8.884;2022-10-16T17:13:44;16.50;99.50
74822;DHT22;63353;48.702;8.884;2022-10-16T17:16:10;16.50;99.90
74822;DHT22;63353;48.702;8.884;2022-10-16T17:18:36;16.40;99.90
74822;DHT22;63353;48.702;8.884;2022-10-16T17:21:05;16.30;99.90
74822;DHT22;63353;48.702;8.884;2022-10-16T17:23:31;16.20;99.90
74822;DHT22;63353;48.702;8.884;2022-10-16T17:26:12;16.10;99.90
74822;DHT22;63353;48.702;8.884;2022-10-16T17:28:38;16.00;99.90
74822;DHT22;63353;48.702;8.884;2022-10-16T17:31:11;15.90;99.90